Saturday, November 18, 2017, 6:06 PM EST
Back to Local

KBLM, Belmar-farmingdale

Location: Farmingdale, NJ, United States Lat: 40.183
Local Time: 6:06 PM EST (23:06 GMT) Lon: -74.133
Time Zone: US/Eastern Elev: 157 ft

Show me the last for .
Show Decoded

2017-11-18 17:56 METAR KBLM 182256Z AUTO 19007KT 10SM -RA FEW075 OVC090 12/07 A2964 RMK AO2 RAB20
                 SLP043 P0000 T01170067 =
2017-11-18 16:56 METAR KBLM 182156Z AUTO 18010G14KT 10SM OVC085 12/06 A2965 RMK AO2 RAB13E51
                 SLP044 P0000 T01170061 =
2017-11-18 15:56 METAR KBLM 182056Z AUTO 19007KT 10SM OVC080 12/04 RMK AO2 SLPNO 60000 T01170044
                 $ =
2017-11-18 14:56 METAR KBLM 181956Z AUTO 16009G18KT 10SM OVC100 11/03 A2969 RMK AO2 SLP061
                 T01110028 =
2017-11-18 13:56 METAR KBLM 181856Z AUTO 17012G15KT 10SM OVC095 11/01 RMK AO2 RAB18E44 SLPNO
                 P0000 T01110011 $ =
2017-11-18 12:56 METAR KBLM 181756Z AUTO 20007KT 10SM CLR 11/01 A2979 RMK AO2 SLP093 6////
                 T01110006 10117 20006 58047 =
2017-11-18 11:56 METAR KBLM 181656Z AUTO 18007G14KT 150V220 10SM CLR 10/03 A2984 RMK AO2 SLP109
                 T01000028 =
2017-11-18 10:56 METAR KBLM 181556Z AUTO 21009KT 10SM CLR 08/02 A2990 RMK AO2 SLP131 T00830022 =
2017-11-18 09:56 METAR KBLM 181456Z AUTO 17003KT 10SM CLR 06/M01 A2993 RMK AO2 SLP140 T00561006
                 58026 =
2017-11-18 08:56 METAR KBLM 181356Z AUTO VRB05KT 10SM CLR 04/M02 A2996 RMK AO2 SLP150 T00441022 =
2017-11-18 07:56 METAR KBLM 181256Z AUTO 17003KT 10SM CLR 01/M04 A2998 RMK AO2 SLP158 T00111044
                 FZRANO =
2017-11-18 06:56 METAR KBLM 181156Z AUTO 16004KT 10SM CLR 01/M06 A3001 RMK AO2 SLP166 6//// 7////
                 T00061061 10006 21033 58005 FZRANO =
2017-11-18 05:56 METAR KBLM 181056Z AUTO 18004KT 10SM CLR M01/M05 A3001 RMK AO2 SLP168 T10111050
                 FZRANO =
2017-11-18 04:56 METAR KBLM 180956Z AUTO 00000KT 10SM CLR M03/M05 A3003 RMK AO2 SLP174 T10281050
                 FZRANO =
2017-11-18 03:56 METAR KBLM 180856Z AUTO 00000KT 10SM CLR M03/M05 A3002 RMK AO2 SLP171 6////
                 T10281050 58014 FZRANO =
2017-11-18 02:56 METAR KBLM 180756Z AUTO 14003KT 10SM CLR M03/M06 A3004 RMK AO2 SLP177 T10281056
                 FZRANO =
2017-11-18 01:56 METAR KBLM 180656Z AUTO 00000KT 10SM CLR M01/M06 A3006 RMK AO2 SLP184 T10111056
                 FZRANO =
2017-11-18 00:56 METAR KBLM 180556Z AUTO 27003KT 10SM CLR 00/M07 A3006 RMK AO2 SLP185 6////
                 T00001067 10056 21011 58013 FZRANO =
2017-11-17 23:56 METAR KBLM 180456Z AUTO 29005KT 10SM CLR 00/M06 A3008 RMK AO2 SLP193 T00001061
                 400891011 FZRANO =
2017-11-17 22:56 METAR KBLM 180356Z AUTO 28006KT 10SM CLR M01/M06 A3009 RMK AO2 SLP195 T10061056
                 FZRANO =
2017-11-17 21:56 METAR KBLM 180256Z AUTO 26006KT 10SM CLR 01/M08 A3010 RMK AO2 SLP198 T00111078
                 58001 FZRANO =
2017-11-17 20:56 METAR KBLM 180156Z AUTO 28004KT 10SM CLR 02/M07 A3012 RMK AO2 SLP204 T00171072
                 FZRANO =
2017-11-17 19:56 METAR KBLM 180056Z AUTO 29004KT 10SM CLR 04/M08 A3010 RMK AO2 SLP197 T00441083 =
2017-11-17 18:56 METAR KBLM 172356Z AUTO 29005KT 10SM CLR 05/M08 A3010 RMK AO2 SLP199 6////
                 T00501078 10089 20050 53007 =

Support USWX by starting your Amazon purchase here.